Time;durP1;ratioP1;P1;durP2;ratioP2;P2;SDS_P1;SDS_P2;PMS_P1;PMS_P2;Temp;Humidity;BMP_temperature;BMP_pressure;BME280_temperature;BME280_humidity;BME280_pressure;Samples;Min_cycle;Max_cycle;Signal;HPM_P1;HPM_P2
2022/05/25 00:01:20;;;;;;;;;;;;;;;;;;5034490;28;27683;-82
2022/05/25 00:03:45;;;;;;;;;;;;;;;;;;5034419;28;28332;-82
2022/05/25 00:06:10;;;;;;;;;;;;;;;;;;5034593;28;28239;-83
2022/05/25 00:08:35;;;;;;;;;;;;;;;;;;5033992;28;28401;-82
2022/05/25 00:11:00;;;;;;;;;;;;;;;;;;5035356;28;28309;-83
2022/05/25 00:13:25;;;;;;;;;;;;;;;;;;5037883;28;28395;-83
2022/05/25 00:15:51;;;;;;;;;;;;;;;;;;5037780;28;28717;-82
2022/05/25 00:18:21;;;;;;;;;;;;;;;;;;5037672;28;29570;-83
2022/05/25 00:20:46;;;;;;;;;;;;;;;;;;5037734;28;27841;-83
2022/05/25 00:23:11;;;;;;;;;;;;;;;;;;5037587;28;28352;-82
2022/05/25 00:25:37;;;;;;;;;;;;;;;;;;5037791;28;28412;-82
2022/05/25 00:28:02;;;;;;;;;;;;;;;;;;5037234;28;28342;-83
2022/05/25 00:30:27;;;;;;;;;;;;;;;;;;5037588;28;28321;-82
2022/05/25 00:32:52;;;;;;;;;;;;;;;;;;5037470;28;28399;-82
2022/05/25 00:35:18;;;;;;;;;;;;;;;;;;5037491;28;28439;-82
2022/05/25 00:37:43;;;;;;;;;;;;;;;;;;5037273;28;28669;-83
2022/05/25 00:40:08;;;;;;;;;;;;;;;;;;5037048;28;28525;-83
2022/05/25 00:42:33;;;;;;;;;;;;;;;;;;5037566;28;28440;-83
2022/05/25 00:44:58;;;;;;;;;;;;;;;;;;5037174;28;28412;-83
2022/05/25 00:47:23;;;;;;;;;;;;;;;;;;5037005;28;28507;-82
2022/05/25 00:49:48;;;;;;;;;;;;;;;;;;5037210;28;28329;-83
2022/05/25 00:52:14;;;;;;;;;;;;;;;;;;5036928;28;28443;-83
2022/05/25 00:54:39;;;;;;;;;;;;;;;;;;5037308;28;28334;-83
2022/05/25 00:57:04;;;;;;;;;;;;;;;;;;5036840;28;28321;-83
2022/05/25 00:59:29;;;;;;;;;;;;;;;;;;5036884;28;28265;-83
2022/05/25 01:01:54;;;;;;;;;;;;;;;;;;5037108;28;28242;-83
2022/05/25 01:04:19;;;;;;;;;;;;;;;;;;5036993;28;28475;-82
2022/05/25 01:06:44;;;;;;;;;;;;;;;;;;5036876;28;28531;-83
2022/05/25 01:09:09;;;;;;;;;;;;;;;;;;5036549;28;28327;-83
2022/05/25 01:11:34;;;;;;;;;;;;;;;;;;5036690;28;28392;-83
2022/05/25 01:14:00;;;;;;;;;;;;;;;;;;5036911;28;28341;-83
2022/05/25 01:16:25;;;;;;;;;;;;;;;;;;5036614;28;29443;-83
2022/05/25 01:18:50;;;;;;;;;;;;;;;;;;5036917;28;28297;-83
2022/05/25 01:21:16;;;;;;;;;;;;;;;;;;5036737;28;28365;-83
2022/05/25 01:23:43;;;;;;;;;;;;;;;;;;5036662;28;28317;-83
2022/05/25 01:26:09;;;;;;;;;;;;;;;;;;5036649;28;28750;-83
2022/05/25 01:28:34;;;;;;;;;;;;;;;;;;5036311;28;28541;-83
2022/05/25 01:30:59;;;;;;;;;;;;;;;;;;5036558;28;28424;-83
2022/05/25 01:33:24;;;;;;;;;;;;;;;;;;5036506;28;28463;-83
2022/05/25 01:35:49;;;;;;;;;;;;;;;;;;5036320;28;29185;-83
2022/05/25 01:38:14;;;;;;;;;;;;;;;;;;5036250;28;28356;-83
2022/05/25 01:40:39;;;;;;;;;;;;;;;;;;5036229;28;28352;-83
2022/05/25 01:43:04;;;;;;;;;;;;;;;;;;5036546;28;28431;-83
2022/05/25 01:45:30;;;;;;;;;;;;;;;;;;5036115;28;29512;-83
2022/05/25 01:47:55;;;;;;;;;;;;;;;;;;5036455;28;28434;-83
2022/05/25 01:50:20;;;;;;;;;;;;;;;;;;5036180;28;28632;-82
2022/05/25 01:52:45;;;;;;;;;;;;;;;;;;5036051;28;28396;-83
2022/05/25 01:55:10;;;;;;;;;;;;;;;;;;5036225;28;28701;-83
2022/05/25 01:57:35;;;;;;;;;;;;;;;;;;5036098;28;28485;-83
2022/05/25 02:00:03;;;;;;;;;;;;;;;;;;5036118;28;28302;-83
2022/05/25 02:05:16;;;;;;;;;;;;;;;;;;4994001;28;28560;-83
2022/05/25 02:07:42;;;;;;;;;;;;;;;;;;4993821;28;28452;-82
2022/05/25 02:10:07;;;;;;;;;;;;;;;;;;4993946;28;28365;-82
2022/05/25 02:12:32;;;;;;;;;;;;;;;;;;4994338;28;28440;-82
2022/05/25 02:14:57;;;;;;;;;;;;;;;;;;4994067;28;29778;-82
2022/05/25 02:17:23;;;;;;;;;;;;;;;;;;4994059;28;28288;-83
2022/05/25 02:19:48;;;;;;;;;;;;;;;;;;4994080;28;27893;-83
2022/05/25 02:22:13;;;;;;;;;;;;;;;;;;4994250;28;28358;-83
2022/05/25 02:24:38;;;;;;;;;;;;;;;;;;4993847;28;28841;-83
2022/05/25 02:27:03;;;;;;;;;;;;;;;;;;4994147;28;28421;-84
2022/05/25 02:29:30;;;;;;;;;;;;;;;;;;4993732;28;28290;-83
2022/05/25 02:31:55;;;;;;;;;;;;;;;;;;4994019;28;28492;-82
2022/05/25 02:34:21;;;;;;;;;;;;;;;;;;4993223;28;28425;-82
2022/05/25 02:36:47;;;;;;;;;;;;;;;;;;4993588;28;28527;-83
2022/05/25 02:39:12;;;;;;;;;;;;;;;;;;4993816;28;28418;-82
2022/05/25 02:41:37;;;;;;;;;;;;;;;;;;5003539;28;28441;-82
2022/05/25 02:44:02;;;;;;;;;;;;;;;;;;5035294;28;29245;-82
2022/05/25 02:46:27;;;;;;;;;;;;;;;;;;5035546;28;28420;-83
2022/05/25 02:48:52;;;;;;;;;;;;;;;;;;5035402;28;28368;-82
2022/05/25 02:51:17;;;;;;;;;;;;;;;;;;5035396;28;28490;-82
2022/05/25 02:53:42;;;;;;;;;;;;;;;;;;5035098;28;28368;-82
2022/05/25 02:56:07;;;;;;;;;;;;;;;;;;5035136;28;27805;-82
2022/05/25 02:58:33;;;;;;;;;;;;;;;;;;5035142;28;28298;-82
2022/05/25 03:00:58;;;;;;;;;;;;;;;;;;5035116;28;28422;-82
2022/05/25 03:03:23;;;;;;;;;;;;;;;;;;5035079;28;28573;-83
2022/05/25 03:05:48;;;;;;;;;;;;;;;;;;5035193;28;28448;-82
2022/05/25 03:08:13;;;;;;;;;;;;;;;;;;5035138;28;28316;-82
2022/05/25 03:10:38;;;;;;;;;;;;;;;;;;5034859;28;28327;-83
2022/05/25 03:13:03;;;;;;;;;;;;;;;;;;5034828;28;28356;-82
2022/05/25 03:15:28;;;;;;;;;;;;;;;;;;5016858;28;28434;-82
2022/05/25 03:17:53;;;;;;;;;;;;;;;;;;5035102;28;28329;-82
2022/05/25 03:20:18;;;;;;;;;;;;;;;;;;5035078;28;28395;-82
2022/05/25 03:22:44;;;;;;;;;;;;;;;;;;5034781;28;28507;-83
2022/05/25 03:25:09;;;;;;;;;;;;;;;;;;5034591;28;28246;-83
2022/05/25 03:27:36;;;;;;;;;;;;;;;;;;5034955;28;28412;-83
2022/05/25 03:30:01;;;;;;;;;;;;;;;;;;5034916;28;28487;-83
2022/05/25 03:32:27;;;;;;;;;;;;;;;;;;5034725;28;28498;-82
2022/05/25 03:34:52;;;;;;;;;;;;;;;;;;5034793;28;28288;-82
2022/05/25 03:37:17;;;;;;;;;;;;;;;;;;5034669;28;28249;-82
2022/05/25 03:39:42;;;;;;;;;;;;;;;;;;5035024;28;28447;-82
2022/05/25 03:42:07;;;;;;;;;;;;;;;;;;5034627;28;28428;-82
2022/05/25 03:44:32;;;;;;;;;;;;;;;;;;5034630;28;28444;-82
2022/05/25 03:46:57;;;;;;;;;;;;;;;;;;5037094;28;28345;-82
2022/05/25 03:49:23;;;;;;;;;;;;;;;;;;5038097;28;28236;-83
2022/05/25 03:51:48;;;;;;;;;;;;;;;;;;5038047;28;29172;-82
2022/05/25 03:54:14;;;;;;;;;;;;;;;;;;5038019;28;28309;-82
2022/05/25 03:56:39;;;;;;;;;;;;;;;;;;5038080;28;28392;-82
2022/05/25 03:59:04;;;;;;;;;;;;;;;;;;5037969;28;28457;-82
2022/05/25 04:01:29;;;;;;;;;;;;;;;;;;5037728;28;29838;-82
2022/05/25 04:03:54;;;;;;;;;;;;;;;;;;5037621;28;28443;-82
2022/05/25 04:06:19;;;;;;;;;;;;;;;;;;5037810;28;28402;-82
2022/05/25 04:08:44;;;;;;;;;;;;;;;;;;5037751;28;28474;-82
2022/05/25 04:11:11;;;;;;;;;;;;;;;;;;5037937;28;29302;-82
2022/05/25 04:13:37;;;;;;;;;;;;;;;;;;5037386;28;28987;-82
2022/05/25 04:16:02;;;;;;;;;;;;;;;;;;5037171;28;28426;-82
2022/05/25 04:18:27;;;;;;;;;;;;;;;;;;5037756;28;28867;-82
2022/05/25 04:20:52;;;;;;;;;;;;;;;;;;5037611;28;28426;-82
2022/05/25 04:23:20;;;;;;;;;;;;;;;;;;5037497;28;28784;-82
2022/05/25 04:25:45;;;;;;;;;;;;;;;;;;5037680;28;28445;-82
2022/05/25 04:28:10;;;;;;;;;;;;;;;;;;5037531;28;28250;-82
2022/05/25 04:30:35;;;;;;;;;;;;;;;;;;5037366;28;28540;-82
2022/05/25 04:33:01;;;;;;;;;;;;;;;;;;5037522;28;28399;-82
2022/05/25 04:35:26;;;;;;;;;;;;;;;;;;5037436;28;28444;-82
2022/05/25 04:37:57;;;;;;;;;;;;;;;;;;5037403;28;28381;-82
2022/05/25 04:40:22;;;;;;;;;;;;;;;;;;5037087;28;28428;-82
2022/05/25 04:42:48;;;;;;;;;;;;;;;;;;5037315;28;28502;-82
2022/05/25 04:45:13;;;;;;;;;;;;;;;;;;5037274;28;28381;-82
2022/05/25 04:47:38;;;;;;;;;;;;;;;;;;5037290;28;28518;-82
2022/05/25 04:50:06;;;;;;;;;;;;;;;;;;5037320;28;29511;-82
2022/05/25 04:52:32;;;;;;;;;;;;;;;;;;5036952;28;28495;-82
2022/05/25 04:54:57;;;;;;;;;;;;;;;;;;5037154;28;28274;-82
2022/05/25 04:57:27;;;;;;;;;;;;;;;;;;5036716;28;35049;-82
2022/05/25 04:59:53;;;;;;;;;;;;;;;;;;5036721;28;29555;-82
2022/05/25 05:02:18;;;;;;;;;;;;;;;;;;5036732;28;28454;-82
2022/05/25 05:04:43;;;;;;;;;;;;;;;;;;5036886;28;28291;-82
2022/05/25 05:07:08;;;;;;;;;;;;;;;;;;5037008;28;28310;-82
2022/05/25 05:09:33;;;;;;;;;;;;;;;;;;5036668;28;28392;-82
2022/05/25 05:11:58;;;;;;;;;;;;;;;;;;5036653;28;28424;-82
2022/05/25 05:14:24;;;;;;;;;;;;;;;;;;5036928;28;28541;-82
2022/05/25 05:16:51;;;;;;;;;;;;;;;;;;5036735;28;28329;-82
2022/05/25 05:19:16;;;;;;;;;;;;;;;;;;5036553;28;28389;-82
2022/05/25 05:21:41;;;;;;;;;;;;;;;;;;5036472;28;28324;-82
2022/05/25 05:24:06;;;;;;;;;;;;;;;;;;5036580;28;28325;-82
2022/05/25 05:26:32;;;;;;;;;;;;;;;;;;5036661;28;28489;-82
2022/05/25 05:28:57;;;;;;;;;;;;;;;;;;5036500;28;28946;-82
2022/05/25 05:31:22;;;;;;;;;;;;;;;;;;5036161;28;28537;-82
2022/05/25 05:33:47;;;;;;;;;;;;;;;;;;5036595;28;27700;-82
2022/05/25 05:36:12;;;;;;;;;;;;;;;;;;5036528;28;28479;-82
2022/05/25 05:38:39;;;;;;;;;;;;;;;;;;5036118;28;28444;-82
2022/05/25 05:41:04;;;;;;;;;;;;;;;;;;5036330;28;28494;-82
2022/05/25 05:43:29;;;;;;;;;;;;;;;;;;5036013;28;27800;-82
2022/05/25 05:45:55;;;;;;;;;;;;;;;;;;5036046;28;27937;-82
2022/05/25 05:48:20;;;;;;;;;;;;;;;;;;5035754;28;28617;-82
2022/05/25 05:50:45;;;;;;;;;;;;;;;;;;5036127;28;28371;-82
2022/05/25 05:53:10;;;;;;;;;;;;;;;;;;5035958;28;28395;-83
2022/05/25 05:55:35;;;;;;;;;;;;;;;;;;5035998;28;28396;-85
2022/05/25 05:58:00;;;;;;;;;;;;;;;;;;5035995;28;28457;-83
2022/05/25 06:00:25;;;;;;;;;;;;;;;;;;5035677;28;28463;-86
2022/05/25 06:02:50;;;;;;;;;;;;;;;;;;5036118;28;28384;-84
2022/05/25 06:05:15;;;;;;;;;;;;;;;;;;5035973;28;28530;-83
2022/05/25 06:07:40;;;;;;;;;;;;;;;;;;5035695;28;29402;-86
2022/05/25 06:10:06;;;;;;;;;;;;;;;;;;5035008;28;28607;-84
2022/05/25 06:12:31;;;;;;;;;;;;;;;;;;5035734;28;27828;-85
2022/05/25 06:14:56;;;;;;;;;;;;;;;;;;5035951;28;28503;-83
2022/05/25 06:20:05;;;;;;;;;;;;;;;;;;5035789;28;28487;-85
2022/05/25 06:22:31;;;;;;;;;;;;;;;;;;5035629;28;28375;-85
2022/05/25 06:24:56;;;;;;;;;;;;;;;;;;5035793;28;28530;-85
2022/05/25 06:27:21;;;;;;;;;;;;;;;;;;5035530;28;29709;-85
2022/05/25 06:29:49;;;;;;;;;;;;;;;;;;5035494;28;28419;-85
2022/05/25 06:32:15;;;;;;;;;;;;;;;;;;5035351;28;28470;-85
2022/05/25 06:34:40;;;;;;;;;;;;;;;;;;5035737;28;28329;-85
2022/05/25 06:37:05;;;;;;;;;;;;;;;;;;5035433;28;29475;-84
2022/05/25 06:39:30;;;;;;;;;;;;;;;;;;5035343;28;28349;-85
2022/05/25 06:41:55;;;;;;;;;;;;;;;;;;5035461;28;28513;-85
2022/05/25 06:44:20;;;;;;;;;;;;;;;;;;5035398;28;28399;-85
2022/05/25 06:46:45;;;;;;;;;;;;;;;;;;5035462;28;28506;-85
2022/05/25 06:49:10;;;;;;;;;;;;;;;;;;5035328;28;28303;-85
2022/05/25 06:51:36;;;;;;;;;;;;;;;;;;5035140;28;28340;-85
2022/05/25 06:54:01;;;;;;;;;;;;;;;;;;5035420;28;28374;-85
2022/05/25 06:56:26;;;;;;;;;;;;;;;;;;5035279;28;28301;-85
2022/05/25 06:58:52;;;;;;;;;;;;;;;;;;5035319;28;28260;-84
2022/05/25 07:01:17;;;;;;;;;;;;;;;;;;5035078;28;28304;-85
2022/05/25 07:03:42;;;;;;;;;;;;;;;;;;5035164;28;28595;-85
2022/05/25 07:06:07;;;;;;;;;;;;;;;;;;5035224;28;28320;-84
2022/05/25 07:08:32;;;;;;;;;;;;;;;;;;5035042;28;28436;-84
2022/05/25 07:10:58;;;;;;;;;;;;;;;;;;5034873;28;28249;-85
2022/05/25 07:13:23;;;;;;;;;;;;;;;;;;5034975;28;28285;-85
2022/05/25 07:15:49;;;;;;;;;;;;;;;;;;5034676;28;28436;-84
2022/05/25 07:18:14;;;;;;;;;;;;;;;;;;5035063;28;28434;-85
2022/05/25 07:20:39;;;;;;;;;;;;;;;;;;5037046;28;28364;-85
2022/05/25 07:23:04;;;;;;;;;;;;;;;;;;5038691;28;28415;-84
2022/05/25 07:25:29;;;;;;;;;;;;;;;;;;5038167;28;28361;-85
2022/05/25 07:27:54;;;;;;;;;;;;;;;;;;5038151;28;28348;-85
2022/05/25 07:30:19;;;;;;;;;;;;;;;;;;5038447;28;28323;-84
2022/05/25 07:32:44;;;;;;;;;;;;;;;;;;5038355;28;28562;-84
2022/05/25 07:35:09;;;;;;;;;;;;;;;;;;5038367;28;29657;-85
2022/05/25 07:37:37;;;;;;;;;;;;;;;;;;5020297;28;28409;-85
2022/05/25 07:40:03;;;;;;;;;;;;;;;;;;5038216;28;28521;-85
2022/05/25 07:42:28;;;;;;;;;;;;;;;;;;5038363;28;28393;-84
2022/05/25 07:44:53;;;;;;;;;;;;;;;;;;5038177;28;28447;-85
2022/05/25 07:47:18;;;;;;;;;;;;;;;;;;5038034;28;28357;-85
2022/05/25 07:49:43;;;;;;;;;;;;;;;;;;5038146;28;28503;-85
2022/05/25 07:52:08;;;;;;;;;;;;;;;;;;5038107;28;28304;-85
2022/05/25 07:54:33;;;;;;;;;;;;;;;;;;5037823;28;28384;-85
2022/05/25 07:56:59;;;;;;;;;;;;;;;;;;5037928;28;28411;-85
2022/05/25 07:59:24;;;;;;;;;;;;;;;;;;5037885;28;28438;-85
2022/05/25 08:07:17;;;;;;;;;;;;;;;;;;5037700;28;28396;-85
2022/05/25 08:09:42;;;;;;;;;;;;;;;;;;5037824;28;28439;-85
2022/05/25 08:12:07;;;;;;;;;;;;;;;;;;5037658;28;27864;-85
2022/05/25 08:14:32;;;;;;;;;;;;;;;;;;5037735;28;28570;-85
2022/05/25 08:16:57;;;;;;;;;;;;;;;;;;5037339;28;28391;-85
2022/05/25 08:19:23;;;;;;;;;;;;;;;;;;5037668;28;28407;-85
2022/05/25 08:21:48;;;;;;;;;;;;;;;;;;5037707;28;28463;-85
2022/05/25 08:24:13;;;;;;;;;;;;;;;;;;5037589;28;28442;-85
2022/05/25 08:26:39;;;;;;;;;;;;;;;;;;5037589;28;28569;-85
2022/05/25 08:29:04;;;;;;;;;;;;;;;;;;5037467;28;28346;-85
2022/05/25 08:31:29;;;;;;;;;;;;;;;;;;5036741;28;28333;-85
2022/05/25 08:33:54;;;;;;;;;;;;;;;;;;5037541;28;29567;-85
2022/05/25 08:36:19;;;;;;;;;;;;;;;;;;5037362;28;28180;-85
2022/05/25 08:38:44;;;;;;;;;;;;;;;;;;5037462;28;27718;-84
2022/05/25 08:41:09;;;;;;;;;;;;;;;;;;5037215;28;28321;-84
2022/05/25 08:43:34;;;;;;;;;;;;;;;;;;5037240;28;28380;-84
2022/05/25 08:46:00;;;;;;;;;;;;;;;;;;5037189;28;28420;-84
2022/05/25 08:48:25;;;;;;;;;;;;;;;;;;5036969;28;28364;-85
2022/05/25 08:50:50;;;;;;;;;;;;;;;;;;5037421;28;27844;-85
2022/05/25 08:53:15;;;;;;;;;;;;;;;;;;5036732;28;28290;-85
2022/05/25 08:55:40;;;;;;;;;;;;;;;;;;5037064;28;28268;-85
2022/05/25 08:58:05;;;;;;;;;;;;;;;;;;5037129;28;27675;-85
2022/05/25 09:00:30;;;;;;;;;;;;;;;;;;5037194;28;28510;-85
2022/05/25 09:02:55;;;;;;;;;;;;;;;;;;5036921;28;28375;-85
2022/05/25 09:05:21;;;;;;;;;;;;;;;;;;5036823;28;28452;-85
2022/05/25 09:07:47;;;;;;;;;;;;;;;;;;5037064;28;28210;-85
2022/05/25 09:10:12;;;;;;;;;;;;;;;;;;5036891;28;28317;-85
2022/05/25 09:12:37;;;;;;;;;;;;;;;;;;5036552;28;28546;-85
2022/05/25 09:15:02;;;;;;;;;;;;;;;;;;5036619;28;28372;-85
2022/05/25 09:17:27;;;;;;;;;;;;;;;;;;5036516;28;28472;-85
2022/05/25 09:19:52;;;;;;;;;;;;;;;;;;5036924;28;28224;-85
2022/05/25 09:22:19;;;;;;;;;;;;;;;;;;5036611;28;28459;-85
2022/05/25 09:24:44;;;;;;;;;;;;;;;;;;5036636;28;28538;-85
2022/05/25 09:27:09;;;;;;;;;;;;;;;;;;5036676;28;29500;-85
2022/05/25 09:29:34;;;;;;;;;;;;;;;;;;5036763;28;28424;-85
2022/05/25 09:31:59;;;;;;;;;;;;;;;;;;5036248;28;28508;-85
2022/05/25 09:34:24;;;;;;;;;;;;;;;;;;5036226;28;28329;-84
2022/05/25 09:36:49;;;;;;;;;;;;;;;;;;5036489;28;28392;-84
2022/05/25 09:39:15;;;;;;;;;;;;;;;;;;5036591;28;28340;-84
2022/05/25 09:41:40;;;;;;;;;;;;;;;;;;5036336;28;29113;-84
2022/05/25 09:44:06;;;;;;;;;;;;;;;;;;5036479;28;28032;-85
2022/05/25 09:46:31;;;;;;;;;;;;;;;;;;5036298;28;28417;-85
2022/05/25 09:48:58;;;;;;;;;;;;;;;;;;5036291;28;28515;-85
2022/05/25 09:51:23;;;;;;;;;;;;;;;;;;5036080;28;28411;-85
2022/05/25 09:53:48;;;;;;;;;;;;;;;;;;5035951;28;28600;-85
2022/05/25 09:56:15;;;;;;;;;;;;;;;;;;5036499;28;28376;-85
2022/05/25 09:58:40;;;;;;;;;;;;;;;;;;5035981;28;28514;-84
2022/05/25 10:01:06;;;;;;;;;;;;;;;;;;5036127;28;29250;-85
2022/05/25 10:03:31;;;;;;;;;;;;;;;;;;5035876;28;28240;-85
2022/05/25 10:05:56;;;;;;;;;;;;;;;;;;5035955;28;28265;-85
2022/05/25 10:08:21;;;;;;;;;;;;;;;;;;5036142;28;28450;-85
2022/05/25 10:10:46;;;;;;;;;;;;;;;;;;5035606;28;28428;-85
2022/05/25 10:13:11;;;;;;;;;;;;;;;;;;5035917;28;28277;-85
2022/05/25 10:15:36;;;;;;;;;;;;;;;;;;5035951;28;28288;-85
2022/05/25 10:18:02;;;;;;;;;;;;;;;;;;5035797;28;28225;-84
2022/05/25 10:20:28;;;;;;;;;;;;;;;;;;5035761;28;29139;-84
2022/05/25 10:22:53;;;;;;;;;;;;;;;;;;5035535;28;28361;-85
2022/05/25 10:25:18;;;;;;;;;;;;;;;;;;5035933;28;28415;-85
2022/05/25 10:27:43;;;;;;;;;;;;;;;;;;5035845;28;28324;-85
2022/05/25 10:38:21;;;;;;;;;;;;;;;;;;5035409;28;27920;-84
2022/05/25 10:40:46;;;;;;;;;;;;;;;;;;5034697;28;28504;-86
2022/05/25 10:43:12;;;;;;;;;;;;;;;;;;5035359;28;28313;-85
2022/05/25 10:45:37;;;;;;;;;;;;;;;;;;5035373;28;28502;-84
2022/05/25 10:48:07;;;;;;;;;;;;;;;;;;5036318;28;35221;-84
2022/05/25 10:50:32;;;;;;;;;;;;;;;;;;5035209;28;28406;-84
2022/05/25 10:52:57;;;;;;;;;;;;;;;;;;5035064;28;28435;-84
2022/05/25 10:55:22;;;;;;;;;;;;;;;;;;5034807;28;28353;-84
2022/05/25 10:57:47;;;;;;;;;;;;;;;;;;5036233;28;28491;-84
2022/05/25 11:00:12;;;;;;;;;;;;;;;;;;5054654;28;28360;-83
2022/05/25 11:02:38;;;;;;;;;;;;;;;;;;5054682;28;28520;-83
2022/05/25 11:05:03;;;;;;;;;;;;;;;;;;5055065;28;28411;-83
2022/05/25 11:07:28;;;;;;;;;;;;;;;;;;5054916;28;28534;-84
2022/05/25 11:09:53;;;;;;;;;;;;;;;;;;5036822;28;29516;-83
2022/05/25 11:12:19;;;;;;;;;;;;;;;;;;5037990;28;28642;-82
2022/05/25 11:14:44;;;;;;;;;;;;;;;;;;5040915;28;28396;-82
2022/05/25 11:17:09;;;;;;;;;;;;;;;;;;5054917;28;28445;-83
2022/05/25 11:19:35;;;;;;;;;;;;;;;;;;5054815;28;29532;-82
2022/05/25 11:22:00;;;;;;;;;;;;;;;;;;5038896;28;28305;-83
2022/05/25 11:24:25;;;;;;;;;;;;;;;;;;5034964;28;28471;-82
2022/05/25 11:26:50;;;;;;;;;;;;;;;;;;5035064;28;28290;-82
2022/05/25 11:29:15;;;;;;;;;;;;;;;;;;5038168;28;28304;-83
2022/05/25 11:31:40;;;;;;;;;;;;;;;;;;5034556;28;28514;-83
2022/05/25 11:34:05;;;;;;;;;;;;;;;;;;5044212;28;28507;-83
2022/05/25 11:36:30;;;;;;;;;;;;;;;;;;5041646;28;28392;-83
2022/05/25 11:38:56;;;;;;;;;;;;;;;;;;5034540;28;28292;-83
2022/05/25 11:41:21;;;;;;;;;;;;;;;;;;5043167;28;28356;-83
2022/05/25 11:43:46;;;;;;;;;;;;;;;;;;5035554;28;28381;-83
2022/05/25 11:46:11;;;;;;;;;;;;;;;;;;5016917;28;28412;-83
2022/05/25 11:48:36;;;;;;;;;;;;;;;;;;5041223;28;28593;-83
2022/05/25 11:51:01;;;;;;;;;;;;;;;;;;5042159;28;28281;-83
2022/05/25 11:53:27;;;;;;;;;;;;;;;;;;5020024;28;28542;-83
2022/05/25 11:55:52;;;;;;;;;;;;;;;;;;5049264;28;28299;-83
2022/05/25 11:58:18;;;;;;;;;;;;;;;;;;5034552;28;28720;-84
2022/05/25 12:00:43;;;;;;;;;;;;;;;;;;5034784;28;27927;-84
2022/05/25 12:03:08;;;;;;;;;;;;;;;;;;5039448;28;28311;-83
2022/05/25 12:05:33;;;;;;;;;;;;;;;;;;5054337;28;28507;-82
2022/05/25 12:07:58;;;;;;;;;;;;;;;;;;5056856;28;29903;-83
2022/05/25 12:10:23;;;;;;;;;;;;;;;;;;5051547;28;28594;-84
2022/05/25 12:12:48;;;;;;;;;;;;;;;;;;5032805;28;28352;-84
2022/05/25 12:15:14;;;;;;;;;;;;;;;;;;5037517;28;28479;-84
2022/05/25 12:17:39;;;;;;;;;;;;;;;;;;5037414;28;28550;-84
2022/05/25 12:20:04;;;;;;;;;;;;;;;;;;5037649;28;28557;-84
2022/05/25 12:22:29;;;;;;;;;;;;;;;;;;5037500;28;28427;-84
2022/05/25 12:24:54;;;;;;;;;;;;;;;;;;5037709;28;28413;-84
2022/05/25 12:27:19;;;;;;;;;;;;;;;;;;5037549;28;28421;-84
2022/05/25 12:29:44;;;;;;;;;;;;;;;;;;5037228;28;28527;-84
2022/05/25 12:32:09;;;;;;;;;;;;;;;;;;5019451;28;28460;-84
2022/05/25 12:34:35;;;;;;;;;;;;;;;;;;5037353;28;28384;-83
2022/05/25 12:37:00;;;;;;;;;;;;;;;;;;5037241;28;28590;-84
2022/05/25 12:39:25;;;;;;;;;;;;;;;;;;5037199;28;28514;-84
2022/05/25 12:41:52;;;;;;;;;;;;;;;;;;5037134;28;28345;-84
2022/05/25 12:49:45;;;;;;;;;;;;;;;;;;5037255;28;28353;-84
2022/05/25 12:52:10;;;;;;;;;;;;;;;;;;5036917;28;28483;-83
2022/05/25 12:54:35;;;;;;;;;;;;;;;;;;5037236;28;28431;-84
2022/05/25 12:57:00;;;;;;;;;;;;;;;;;;5036858;28;29275;-83
2022/05/25 12:59:25;;;;;;;;;;;;;;;;;;5036998;28;28463;-83
2022/05/25 13:01:50;;;;;;;;;;;;;;;;;;5036972;28;28328;-84
2022/05/25 13:04:23;;;;;;;;;;;;;;;;;;5036708;28;28424;-83
2022/05/25 13:06:50;;;;;;;;;;;;;;;;;;5036794;28;28500;-84
2022/05/25 13:09:15;;;;;;;;;;;;;;;;;;5036297;28;28491;-84
2022/05/25 13:11:41;;;;;;;;;;;;;;;;;;5036843;28;28392;-84
2022/05/25 13:14:08;;;;;;;;;;;;;;;;;;5036940;28;28338;-83
2022/05/25 13:16:33;;;;;;;;;;;;;;;;;;5036529;28;28516;-84
2022/05/25 13:19:00;;;;;;;;;;;;;;;;;;5036115;28;28531;-84
2022/05/25 13:21:25;;;;;;;;;;;;;;;;;;5036713;28;28257;-84
2022/05/25 13:23:50;;;;;;;;;;;;;;;;;;5036961;28;28518;-84
2022/05/25 13:26:15;;;;;;;;;;;;;;;;;;5036537;28;29473;-83
2022/05/25 13:28:40;;;;;;;;;;;;;;;;;;5036530;28;28403;-84
2022/05/25 13:31:08;;;;;;;;;;;;;;;;;;5036609;28;28337;-84
2022/05/25 13:33:36;;;;;;;;;;;;;;;;;;5036347;28;28337;-83
2022/05/25 13:36:01;;;;;;;;;;;;;;;;;;5036386;28;29067;-83
2022/05/25 13:38:26;;;;;;;;;;;;;;;;;;5036543;28;31460;-84
2022/05/25 13:40:51;;;;;;;;;;;;;;;;;;5036339;28;28441;-84
2022/05/25 13:43:18;;;;;;;;;;;;;;;;;;5036349;28;28375;-83
2022/05/25 13:45:43;;;;;;;;;;;;;;;;;;5036246;28;29629;-83
2022/05/25 13:48:09;;;;;;;;;;;;;;;;;;5036140;28;28673;-84
2022/05/25 13:50:35;;;;;;;;;;;;;;;;;;5036530;28;28427;-84
2022/05/25 13:53:00;;;;;;;;;;;;;;;;;;5036187;28;28277;-84
2022/05/25 13:55:25;;;;;;;;;;;;;;;;;;5035885;28;28253;-84
2022/05/25 13:57:51;;;;;;;;;;;;;;;;;;5035975;28;28919;-84
2022/05/25 14:00:17;;;;;;;;;;;;;;;;;;5035977;28;28250;-84
2022/05/25 14:02:43;;;;;;;;;;;;;;;;;;5036120;28;28474;-84
2022/05/25 14:05:10;;;;;;;;;;;;;;;;;;5035798;28;29698;-84
2022/05/25 14:07:39;;;;;;;;;;;;;;;;;;5035800;28;28368;-84
2022/05/25 14:12:47;;;;;;;;;;;;;;;;;;5035949;28;28364;-84
2022/05/25 14:15:12;;;;;;;;;;;;;;;;;;5038088;28;29561;-84
2022/05/25 14:17:41;;;;;;;;;;;;;;;;;;5053391;28;28332;-84
2022/05/25 14:20:07;;;;;;;;;;;;;;;;;;5054611;28;28230;-84
2022/05/25 14:22:32;;;;;;;;;;;;;;;;;;5055831;28;28478;-84
2022/05/25 14:24:57;;;;;;;;;;;;;;;;;;5055646;28;28390;-88
2022/05/25 14:27:23;;;;;;;;;;;;;;;;;;5037554;28;28426;-85
2022/05/25 14:29:48;;;;;;;;;;;;;;;;;;5034008;28;28449;-84
2022/05/25 14:32:13;;;;;;;;;;;;;;;;;;5035088;28;28324;-84
2022/05/25 14:34:38;;;;;;;;;;;;;;;;;;5039112;28;30122;-84
2022/05/25 14:37:03;;;;;;;;;;;;;;;;;;5043821;28;27893;-84
2022/05/25 14:39:28;;;;;;;;;;;;;;;;;;5034869;28;28297;-84
2022/05/25 14:41:53;;;;;;;;;;;;;;;;;;5035121;28;28629;-85
2022/05/25 14:44:21;;;;;;;;;;;;;;;;;;5034749;28;29108;-85
2022/05/25 14:46:47;;;;;;;;;;;;;;;;;;5034890;28;28455;-85
2022/05/25 14:49:12;;;;;;;;;;;;;;;;;;5034770;28;28608;-85
2022/05/25 14:51:37;;;;;;;;;;;;;;;;;;5034918;28;28883;-85
2022/05/25 14:54:02;;;;;;;;;;;;;;;;;;5034694;28;28423;-84
2022/05/25 14:56:27;;;;;;;;;;;;;;;;;;5039145;28;28594;-84
2022/05/25 14:58:53;;;;;;;;;;;;;;;;;;5054835;28;28372;-84
2022/05/25 15:01:18;;;;;;;;;;;;;;;;;;5052961;28;28402;-84
2022/05/25 15:03:45;;;;;;;;;;;;;;;;;;5052754;28;28522;-85
2022/05/25 15:06:11;;;;;;;;;;;;;;;;;;5049080;28;28480;-84
2022/05/25 15:08:36;;;;;;;;;;;;;;;;;;5050907;28;28356;-85
2022/05/25 15:11:01;;;;;;;;;;;;;;;;;;5054372;28;28561;-85
2022/05/25 15:18:29;;;;;;;;;;;;;;;;;;5047634;28;29233;-85
2022/05/25 15:18:56;;;;;;;;;;;;;;;;;;5035305;28;28314;-85
2022/05/25 15:21:21;;;;;;;;;;;;;;;;;;5034626;28;28234;-85
2022/05/25 15:23:47;;;;;;;;;;;;;;;;;;5034393;28;28242;-84
2022/05/25 15:26:12;;;;;;;;;;;;;;;;;;5035274;28;28523;-84
2022/05/25 15:28:37;;;;;;;;;;;;;;;;;;5034460;28;28234;-84
2022/05/25 15:31:03;;;;;;;;;;;;;;;;;;5038139;28;28534;-84
2022/05/25 15:33:28;;;;;;;;;;;;;;;;;;5043365;28;29230;-84
2022/05/25 15:35:53;;;;;;;;;;;;;;;;;;5035008;28;28290;-85
2022/05/25 15:38:18;;;;;;;;;;;;;;;;;;5048790;28;28382;-85
2022/05/25 15:40:46;;;;;;;;;;;;;;;;;;5040840;28;27873;-86
2022/05/25 15:43:11;;;;;;;;;;;;;;;;;;5050546;28;28554;-87
2022/05/25 15:45:37;;;;;;;;;;;;;;;;;;5041311;28;27776;-87
2022/05/25 15:48:02;;;;;;;;;;;;;;;;;;5042130;28;27879;-87
2022/05/25 15:50:27;;;;;;;;;;;;;;;;;;5039510;28;28448;-87
2022/05/25 15:52:52;;;;;;;;;;;;;;;;;;5039504;28;28536;-86
2022/05/25 15:55:17;;;;;;;;;;;;;;;;;;5046418;28;28511;-86
2022/05/25 15:57:43;;;;;;;;;;;;;;;;;;5055849;28;28407;-86
2022/05/25 16:00:10;;;;;;;;;;;;;;;;;;5058056;28;28340;-86
2022/05/25 16:02:36;;;;;;;;;;;;;;;;;;5057685;28;28346;-86
2022/05/25 16:05:01;;;;;;;;;;;;;;;;;;5057835;28;28251;-86
2022/05/25 16:09:11;;;;;;;;;;;;;;;;;;5057826;28;28266;-86
2022/05/25 16:10:14;;;;;;;;;;;;;;;;;;5057610;28;28464;-86
2022/05/25 16:12:39;;;;;;;;;;;;;;;;;;5057767;28;28498;-86
2022/05/25 16:15:07;;;;;;;;;;;;;;;;;;5057237;28;28319;-86
2022/05/25 16:17:32;;;;;;;;;;;;;;;;;;5057624;28;28360;-86
2022/05/25 16:19:58;;;;;;;;;;;;;;;;;;5057615;28;28474;-86
2022/05/25 16:22:24;;;;;;;;;;;;;;;;;;5033841;28;29687;-88
2022/05/25 16:24:49;;;;;;;;;;;;;;;;;;5018180;28;28484;-86
2022/05/25 16:27:14;;;;;;;;;;;;;;;;;;5017510;28;28453;-85
2022/05/25 16:29:39;;;;;;;;;;;;;;;;;;5017692;28;28440;-86
2022/05/25 16:32:04;;;;;;;;;;;;;;;;;;5017182;28;28455;-86
2022/05/25 16:34:31;;;;;;;;;;;;;;;;;;5017695;28;28251;-89
2022/05/25 16:36:56;;;;;;;;;;;;;;;;;;5017354;28;28400;-86
2022/05/25 16:39:22;;;;;;;;;;;;;;;;;;5017251;28;28310;-86
2022/05/25 16:41:51;;;;;;;;;;;;;;;;;;5017682;28;29284;-91
2022/05/25 16:44:16;;;;;;;;;;;;;;;;;;5017305;28;28503;-87
2022/05/25 16:46:41;;;;;;;;;;;;;;;;;;5017461;28;28581;-85
2022/05/25 16:49:07;;;;;;;;;;;;;;;;;;5032730;28;28389;-86
2022/05/25 16:51:32;;;;;;;;;;;;;;;;;;5016785;28;33607;-87
2022/05/25 16:53:57;;;;;;;;;;;;;;;;;;5031459;28;28737;-85
2022/05/25 16:56:22;;;;;;;;;;;;;;;;;;5017277;28;28423;-87
2022/05/25 16:58:48;;;;;;;;;;;;;;;;;;5017561;28;28333;-90
2022/05/25 17:01:13;;;;;;;;;;;;;;;;;;5017390;28;28516;-93
2022/05/25 17:03:38;;;;;;;;;;;;;;;;;;5016889;28;28462;-92